Погода Усакосна неделю

Эронго, Намибия

03 - 09 марта
  • 03марта
    Сегодня
    +18°
    +38°
    Ясно и безоблачно
    ВремяПогодаТемператураВлажностьДавлениеВетер, м/сВероятность осадков
    02:00Ясно и безоблачно+22°C50 %688 мм1.9 м/с5 %
    05:00Ясно и безоблачно+21°C54 %687 мм0.9 м/с5 %
    08:00Ясно и безоблачно+22°C47 %688 мм0.8 м/с5 %
    11:00Небольшая облачность+32°C25 %689 мм0.8 м/с5 %
    14:00Ясно и безоблачно+37°C16 %688 мм4.2 м/с5 %
    17:00Ясно и безоблачно+34°C21 %688 мм8.4 м/с5 %
    20:00Ясно и безоблачно+27°C33 %688 мм6.4 м/с5 %
    23:00Ясно и безоблачно+24°C40 %688 мм1.8 м/с5 %
  • 04марта
    Понедельник
    +15°
    +34°
    Облачно с прояснениями
    ВремяПогодаТемператураВлажностьДавлениеВетер, м/сВероятность осадков
    02:00Ясно и безоблачно+21°C44 %687 мм0.7 м/с5 %
    05:00Практически безоблачно+19°C47 %686 мм0.5 м/с5 %
    08:00Ясно и безоблачно+21°C45 %686 мм0.6 м/с5 %
    11:00Ясно и безоблачно+29°C23 %688 мм1.9 м/с5 %
    14:00Облачно с прояснениями+34°C14 %687 мм7.4 м/с5 %
    17:00Небольшая облачность+31°C18 %687 мм7.5 м/с5 %
    20:00Небольшая облачность+25°C37 %687 мм5.4 м/с5 %
    23:00Ясно и безоблачно+21°C60 %688 мм2.9 м/с5 %
  • 05марта
    Вторник
    +15°
    +32°
    Ясно и безоблачно
    ВремяПогодаТемператураВлажностьДавлениеВетер, м/сВероятность осадков
    02:00Небольшая облачность+17°C68 %686 мм1.8 м/с5 %
    05:00Ясно и безоблачно+16°C70 %685 мм0.1 м/с5 %
    08:00Ясно и безоблачно+17°C60 %686 мм0.2 м/с5 %
    11:00Ясно и безоблачно+26°C29 %688 мм1.2 м/с5 %
    14:00Ясно и безоблачно+31°C18 %687 мм4.3 м/с5 %
    17:00Ясно и безоблачно+30°C23 %686 мм6.6 м/с5 %
    20:00Ясно и безоблачно+24°C35 %687 мм5.9 м/с5 %
    23:00Ясно и безоблачно+21°C44 %687 мм1.8 м/с5 %
  • 06марта
    Среда
    +15°
    +34°
    Ясно и безоблачно
    ВремяПогодаТемператураВлажностьДавлениеВетер, м/сВероятность осадков
    02:00Ясно и безоблачно+18°C49 %686 мм0.4 м/с5 %
    05:00Ясно и безоблачно+17°C48 %686 мм0.6 м/с5 %
    08:00Ясно и безоблачно+18°C44 %686 мм1.7 м/с5 %
    11:00Ясно и безоблачно+28°C19 %688 мм0.8 м/с5 %
    14:00Ясно и безоблачно+33°C9 %688 мм5.6 м/с5 %
    17:00Ясно и безоблачно+33°C15 %687 мм7.7 м/с5 %
    20:00Ясно и безоблачно+25°C24 %688 мм5.9 м/с5 %
    23:00Ясно и безоблачно+21°C43 %689 мм2.7 м/с5 %
Мы используем cookies
Соглашаюсь